Time;durP1;ratioP1;P1;durP2;ratioP2;P2;SDS_P1;SDS_P2;PMS_P1;PMS_P2;Temp;Humidity;BMP_temperature;BMP_pressure;BME280_temperature;BME280_humidity;BME280_pressure;Samples;Min_cycle;Max_cycle;Signal;HPM_P1;HPM_P2
2023/08/22 00:09:59;;;;;;;11.60;8.70;;;;;;;18.44;79.20;99120.66;435228;1256;97983;-42
2023/08/22 00:20:08;;;;;;;12.00;8.60;;;;;;;18.39;79.57;99125.20;435237;1253;108973;-42
2023/08/22 00:30:15;;;;;;;17.90;9.00;;;;;;;18.34;79.63;99123.81;435130;1263;348943;-42
2023/08/22 00:40:23;;;;;;;12.60;9.60;;;;;;;18.24;79.72;99114.83;435291;1250;110839;-42
2023/08/22 00:50:30;;;;;;;12.40;9.80;;;;;;;18.19;80.09;99110.64;435153;1263;108368;-42
2023/08/22 01:00:37;;;;;;;16.30;10.80;;;;;;;18.06;80.03;99112.35;435311;1254;99257;-42
2023/08/22 01:20:58;;;;;;;12.60;9.90;;;;;;;17.88;80.39;99110.83;436377;1253;99243;-42
2023/08/22 01:31:10;;;;;;;14.10;10.40;;;;;;;17.89;80.86;99101.78;436368;1253;112518;-42
2023/08/22 01:51:24;;;;;;;13.90;11.20;;;;;;;17.78;81.20;99096.00;436493;1253;98010;-41
2023/08/22 02:11:37;;;;;;;20.80;11.80;;;;;;;17.66;81.62;99094.83;435762;1250;99236;-43
2023/08/22 02:21:44;;;;;;;15.90;11.20;;;;;;;17.68;81.86;99091.31;435386;1252;111877;-42
2023/08/22 02:31:51;;;;;;;14.80;10.50;;;;;;;17.68;81.77;99082.52;435445;1254;109069;-43
2023/08/22 02:41:58;;;;;;;15.40;10.60;;;;;;;17.64;82.02;99086.67;435374;1253;99241;-44
2023/08/22 03:02:11;;;;;;;15.40;9.90;;;;;;;17.50;82.06;99080.77;435223;1252;99315;-43
2023/08/22 03:12:17;;;;;;;14.30;10.60;;;;;;;17.45;82.00;99081.98;435373;1253;110934;-45
2023/08/22 03:22:23;;;;;;;16.40;10.60;;;;;;;17.25;81.81;99080.10;435254;1253;109866;-43
2023/08/22 03:32:30;;;;;;;14.40;9.70;;;;;;;17.15;82.23;99077.11;435505;1254;98903;-43
2023/08/22 03:42:37;;;;;;;14.70;10.70;;;;;;;17.15;82.20;99069.69;435424;1253;109310;-44
2023/08/22 03:52:44;;;;;;;13.70;10.30;;;;;;;17.10;82.34;99070.27;435451;1254;99240;-43
2023/08/22 04:02:53;;;;;;;12.30;9.60;;;;;;;17.13;82.50;99068.35;435197;1263;111753;-43
2023/08/22 04:13:00;;;;;;;16.30;10.80;;;;;;;17.26;82.50;99065.83;435623;1254;106844;-42
2023/08/22 04:23:07;;;;;;;16.20;11.40;;;;;;;17.23;82.51;99063.78;435682;1263;99227;-41
2023/08/22 04:33:14;;;;;;;16.10;10.50;;;;;;;17.39;82.52;99055.60;435267;1263;109470;-43
2023/08/22 04:53:28;;;;;;;19.40;13.10;;;;;;;18.32;82.55;99050.95;435402;1253;112039;-43
2023/08/22 05:03:35;;;;;;;19.90;16.60;;;;;;;19.28;83.33;99052.58;435363;1262;107883;-44
2023/08/22 05:13:42;;;;;;;23.90;16.60;;;;;;;20.80;82.94;99049.93;435252;1253;99100;-43
2023/08/22 05:23:48;;;;;;;19.40;16.00;;;;;;;22.06;81.77;99046.91;435407;1254;109983;-42
2023/08/22 05:33:55;;;;;;;17.90;14.40;;;;;;;23.05;81.12;99042.36;435293;1251;98972;-41
2023/08/22 05:44:02;;;;;;;16.60;12.40;;;;;;;24.06;79.69;99049.99;435515;1253;111001;-42
2023/08/22 05:54:09;;;;;;;22.70;16.20;;;;;;;25.20;78.04;99053.66;435359;1250;108538;-42
2023/08/22 06:04:15;;;;;;;21.30;16.20;;;;;;;25.70;76.09;99057.75;435501;1249;98801;-42
2023/08/22 06:14:20;;;;;;;19.70;14.40;;;;;;;25.91;73.86;99065.52;435564;1263;109473;-43
2023/08/22 06:34:34;;;;;;;16.30;11.20;;;;;;;26.94;71.54;99060.11;435397;1254;111768;-42
2023/08/22 06:44:39;;;;;;;19.70;11.70;;;;;;;27.33;69.42;99061.17;435369;1253;109329;-44
2023/08/22 07:04:50;;;;;;;10.10;8.60;;;;;;;27.93;65.79;99061.89;435394;1254;107491;-42
2023/08/22 07:14:57;;;;;;;15.80;9.10;;;;;;;28.02;63.60;99062.96;435387;1251;98838;-43
2023/08/22 07:35:07;;;;;;;20.30;9.10;;;;;;;28.39;61.87;99050.77;435353;1253;107694;-43
2023/08/22 07:45:12;;;;;;;14.80;8.70;;;;;;;28.84;60.84;99048.55;435480;1254;99208;-44
2023/08/22 08:05:23;;;;;;;18.10;9.40;;;;;;;29.48;57.85;99047.25;435487;1251;101384;-43
2023/08/22 08:25:36;;;;;;;11.00;6.00;;;;;;;29.22;56.57;99036.41;435561;1251;108454;-43
2023/08/22 08:35:39;;;;;;;10.40;6.10;;;;;;;29.39;56.13;99033.98;435753;1250;98427;-45
2023/08/22 08:45:45;;;;;;;8.20;5.90;;;;;;;30.12;56.10;99035.13;435649;1255;108479;-44
2023/08/22 09:05:56;;;;;;;11.20;6.50;;;;;;;29.84;54.43;99021.33;435535;1253;103874;-44
2023/08/22 09:26:11;;;;;;;8.60;6.80;;;;;;;30.19;53.13;99015.84;435787;1250;98367;-43
2023/08/22 09:46:24;;;;;;;4.90;4.40;;;;;;;30.27;52.05;99008.85;435774;1251;98013;-43
2023/08/22 10:16:45;;;;;;;3.50;3.20;;;;;;;31.14;49.93;98981.48;436061;1249;98042;-43
2023/08/22 10:47:22;;;;;;;7.20;3.80;;;;;;;30.12;46.48;98954.73;435496;1253;103717;-44
2023/08/22 11:17:43;;;;;;;5.60;4.00;;;;;;;30.52;45.89;98937.32;435665;1253;100063;-42
2023/08/22 11:27:50;;;;;;;8.30;4.50;;;;;;;30.67;46.43;98935.18;435538;1254;99209;-42
2023/08/22 11:37:57;;;;;;;4.40;4.00;;;;;;;31.16;46.01;98937.67;435609;1253;104274;-42
2023/08/22 11:48:03;;;;;;;4.60;3.70;;;;;;;30.80;45.11;98925.41;435638;1249;100029;-43
2023/08/22 11:58:11;;;;;;;6.00;3.70;;;;;;;30.65;44.72;98918.90;435528;1249;98399;-43
2023/08/22 12:08:19;;;;;;;7.60;4.50;;;;;;;30.73;44.57;98909.52;435568;1253;100332;-42
2023/08/22 12:18:30;;;;;;;4.50;3.80;;;;;;;30.45;45.31;98907.98;435760;1253;98008;-42
2023/08/22 12:28:36;;;;;;;5.20;4.30;;;;;;;30.07;45.99;98898.89;435705;1253;415283;-42
2023/08/22 12:38:41;;;;;;;4.80;3.70;;;;;;;29.81;46.27;98889.02;435584;1250;107763;-41
2023/08/22 12:48:48;;;;;;;5.30;4.40;;;;;;;29.67;46.26;98879.87;437839;1249;97985;-42
2023/08/22 12:58:53;;;;;;;6.80;4.30;;;;;;;29.49;46.48;98876.67;438117;1253;108147;-43
2023/08/22 13:08:58;;;;;;;5.70;4.50;;;;;;;29.44;46.49;98872.30;438199;1253;99221;-42
2023/08/22 13:19:06;;;;;;;5.00;4.10;;;;;;;29.28;46.04;98866.52;436979;1253;112281;-41
2023/08/22 13:29:12;;;;;;;4.90;4.40;;;;;;;29.22;46.38;98852.32;435596;1253;108579;-41
2023/08/22 13:39:19;;;;;;;5.50;4.00;;;;;;;29.30;46.59;98850.68;435611;1251;99774;-41
2023/08/22 13:59:32;;;;;;;6.30;4.90;;;;;;;29.20;46.44;98834.46;435558;1253;99313;-41
2023/08/22 14:09:39;;;;;;;5.50;4.60;;;;;;;29.33;46.04;98825.48;435558;1253;111841;-41
2023/08/22 14:19:45;;;;;;;7.00;4.80;;;;;;;29.14;45.99;98817.88;435657;1253;109499;-41
2023/08/22 14:29:50;;;;;;;;;;;;;;;29.19;46.52;98808.13;435334;1253;99269;-43
2023/08/22 14:39:56;;;;;;;;;;;;;;;29.49;47.29;98792.59;435594;1250;109772;-41
2023/08/22 15:00:11;;;;;;;5.80;4.10;;;;;;;29.94;45.52;98772.27;435579;1254;112740;-42
2023/08/22 15:20:24;;;;;;;5.80;4.00;;;;;;;29.96;45.53;98753.48;435609;1253;99212;-42
2023/08/22 15:30:33;;;;;;;5.90;4.60;;;;;;;29.58;45.38;98754.61;435518;1253;107533;-42
2023/08/22 15:40:45;;;;;;;8.50;4.90;;;;;;;29.35;45.75;98749.27;435652;1253;99250;-41
2023/08/22 16:00:59;;;;;;;10.30;4.80;;;;;;;29.02;46.56;98728.10;435753;1254;108609;-42
2023/08/22 16:11:06;;;;;;;6.40;5.50;;;;;;;29.01;47.21;98722.95;435515;1251;98702;-41
2023/08/22 16:21:14;;;;;;;4.90;4.50;;;;;;;28.73;47.51;98711.20;435310;1250;108288;-42
2023/08/22 16:31:20;;;;;;;8.90;5.10;;;;;;;28.20;48.06;98696.51;435520;1250;99243;-42
2023/08/22 16:41:27;;;;;;;11.20;5.50;;;;;;;27.76;48.79;98693.60;435638;1253;111924;-41
2023/08/22 16:51:35;;;;;;;9.60;5.50;;;;;;;27.22;49.91;98685.34;435463;1253;108519;-40
2023/08/22 17:01:42;;;;;;;7.90;5.80;;;;;;;26.65;51.26;98662.33;435773;1251;98652;-41
2023/08/22 17:11:48;;;;;;;6.30;5.60;;;;;;;26.48;51.93;98656.52;435465;1253;107972;-42
2023/08/22 17:21:55;;;;;;;7.70;6.30;;;;;;;26.33;52.44;98651.95;435555;1253;97981;-41
2023/08/22 17:32:02;;;;;;;19.10;13.60;;;;;;;26.20;52.90;98661.42;435462;1253;111978;-41
2023/08/22 17:42:09;;;;;;;9.20;7.10;;;;;;;26.04;53.81;98661.79;435616;1251;107649;-42
2023/08/22 17:52:15;;;;;;;;;;;;;;;25.81;54.71;98661.85;435581;1253;99240;-40
2023/08/22 18:02:22;;;;;;;22.40;7.00;;;;;;;25.64;55.68;98706.23;435288;1253;108174;-41
2023/08/22 18:22:35;;;;;;;23.20;18.10;;;;;;;25.20;57.77;98690.42;435645;1250;111896;-42
2023/08/22 18:42:45;;;;;;;14.50;10.80;;;;;;;24.85;60.22;98708.33;435523;1253;97989;-43
2023/08/22 18:52:51;;;;;;;14.50;8.50;;;;;;;24.55;61.56;98705.12;435435;1253;108562;-42
2023/08/22 19:02:59;;;;;;;20.20;14.50;;;;;;;24.06;62.42;98688.92;435385;1253;99197;-41
2023/08/22 19:13:06;;;;;;;17.90;12.30;;;;;;;23.98;64.10;98688.06;435337;1253;111287;-41
2023/08/22 19:23:16;;;;;;;11.30;10.10;;;;;;;23.86;64.66;98683.22;435362;1253;106493;-41
2023/08/22 19:33:27;;;;;;;15.70;10.70;;;;;;;23.72;65.73;98691.88;435490;1251;99232;-41
2023/08/22 19:43:35;;;;;;;20.40;13.20;;;;;;;23.59;66.41;98717.10;435449;1253;107826;-41
2023/08/22 19:53:42;;;;;;;12.50;10.10;;;;;;;23.32;66.75;98697.90;435419;1253;99249;-42
2023/08/22 20:03:49;;;;;;;13.70;9.50;;;;;;;23.27;66.97;98694.27;435291;1250;112397;-42
2023/08/22 20:13:55;;;;;;;13.30;9.80;;;;;;;23.19;67.59;98690.92;435298;1250;107956;-43
2023/08/22 20:34:08;;;;;;;10.90;8.10;;;;;;;23.28;67.09;98660.69;435302;1255;108638;-41
2023/08/22 20:54:20;;;;;;;9.70;7.10;;;;;;;24.08;66.22;98676.41;435390;1251;112066;-42
2023/08/22 21:04:25;;;;;;;8.60;7.20;;;;;;;24.12;64.97;98689.86;435323;1251;108315;-42
2023/08/22 21:24:42;;;;;;;7.50;6.30;;;;;;;23.45;65.13;98668.39;435378;1253;110608;-42
2023/08/22 21:34:47;;;;;;;11.40;8.50;;;;;;;23.17;65.63;98654.93;435419;1252;99284;-41
2023/08/22 21:44:53;;;;;;;11.60;8.30;;;;;;;22.99;66.17;98651.48;435654;1250;111112;-41
2023/08/22 21:55:00;;;;;;;9.90;7.30;;;;;;;23.02;66.59;98649.80;435382;1253;108291;-42
2023/08/22 22:05:08;;;;;;;8.60;7.70;;;;;;;22.96;66.90;98646.13;436380;1253;98792;-41
2023/08/22 22:35:26;;;;;;;11.40;8.70;;;;;;;22.64;67.67;98667.83;435449;1251;111216;-42
2023/08/22 22:45:33;;;;;;;8.00;7.20;;;;;;;22.32;68.30;98676.15;435133;1253;108202;-42
2023/08/22 22:55:39;;;;;;;14.00;9.30;;;;;;;22.18;69.07;98690.26;435443;1251;99243;-42
2023/08/22 23:05:46;;;;;;;14.50;9.00;;;;;;;22.07;69.54;98698.25;435463;1254;108346;-42
2023/08/22 23:15:51;;;;;;;10.70;8.20;;;;;;;21.89;70.12;98710.14;435440;1252;99214;-43
2023/08/22 23:56:21;;;;;;;13.60;8.70;;;;;;;21.51;72.40;98676.58;435288;1264;107010;-42
